createdAt,value
2023-04-09T00:00:03.022Z,81.02
2023-04-09T00:02:29.681Z,81.35
2023-04-09T00:04:56.328Z,81.09
2023-04-09T00:07:22.906Z,81.17
2023-04-09T00:09:49.488Z,81.16
2023-04-09T00:12:16.132Z,81.10
2023-04-09T00:14:42.764Z,80.85
2023-04-09T00:17:09.414Z,81.29
2023-04-09T00:19:36.643Z,81.35
2023-04-09T00:22:03.235Z,81.48
2023-04-09T00:24:29.872Z,81.40
2023-04-09T00:26:57.209Z,81.72
2023-04-09T00:29:23.878Z,81.35
2023-04-09T00:31:50.858Z,81.40
2023-04-09T00:34:17.609Z,81.59
2023-04-09T00:36:44.225Z,81.36
2023-04-09T00:39:11.438Z,81.55
2023-04-09T00:41:38.028Z,81.30
2023-04-09T00:44:04.766Z,81.19
2023-04-09T00:46:32.618Z,81.47
2023-04-09T00:48:59.898Z,81.29
2023-04-09T00:51:26.908Z,81.67
2023-04-09T00:53:54.509Z,81.00
2023-04-09T00:56:23.604Z,81.61
2023-04-09T00:58:51.152Z,81.55
2023-04-09T01:01:17.999Z,81.35
2023-04-09T01:03:45.125Z,81.56
2023-04-09T01:06:46.196Z,81.30
2023-04-09T01:09:22.221Z,81.50
2023-04-09T01:12:09.564Z,81.55
2023-04-09T01:14:54.223Z,81.40
2023-04-09T01:17:45.784Z,81.53
2023-04-09T01:20:22.618Z,81.59
2023-04-09T01:23:01.466Z,81.75
2023-04-09T01:25:34.214Z,82.25
2023-04-09T01:28:22.845Z,81.93
2023-04-09T01:30:53.090Z,82.45
2023-04-09T01:33:20.722Z,82.07
2023-04-09T01:35:49.961Z,81.78
2023-04-09T01:38:19.858Z,82.22
2023-04-09T01:40:47.193Z,82.18
2023-04-09T01:43:15.109Z,82.08
2023-04-09T01:45:43.987Z,82.29
2023-04-09T01:48:11.598Z,81.88
2023-04-09T01:50:38.383Z,82.52
2023-04-09T01:53:05.967Z,82.25
2023-04-09T01:55:32.578Z,82.23
2023-04-09T01:57:59.195Z,82.36
2023-04-09T02:00:34.817Z,82.17
2023-04-09T02:03:18.600Z,82.24
2023-04-09T02:06:15.977Z,82.58
2023-04-09T02:08:47.838Z,82.09
2023-04-09T02:11:16.336Z,82.71
2023-04-09T02:13:44.316Z,82.66
2023-04-09T02:16:13.998Z,81.95
2023-04-09T02:18:40.659Z,82.40
2023-04-09T02:21:07.391Z,82.64
2023-04-09T02:23:33.988Z,82.78
2023-04-09T02:26:01.609Z,82.69
2023-04-09T02:28:28.378Z,82.76
2023-04-09T02:30:55.375Z,83.02
2023-04-09T02:33:22.786Z,83.27
2023-04-09T02:35:49.403Z,82.96
2023-04-09T02:38:16.247Z,83.06
2023-04-09T02:40:43.539Z,82.81
2023-04-09T02:43:10.755Z,83.30
2023-04-09T02:45:37.696Z,83.31
2023-04-09T02:48:07.078Z,83.57
2023-04-09T02:50:33.776Z,83.60
2023-04-09T02:53:00.427Z,83.30
2023-04-09T02:55:27.239Z,83.50
2023-04-09T02:57:53.873Z,83.57
2023-04-09T03:00:20.538Z,83.63
2023-04-09T03:02:47.519Z,83.42
2023-04-09T03:05:14.299Z,83.64
2023-04-09T03:07:40.877Z,83.66
2023-04-09T03:10:08.000Z,83.53
2023-04-09T03:12:34.580Z,83.67
2023-04-09T03:15:01.201Z,83.16
2023-04-09T03:17:27.913Z,83.67
2023-04-09T03:19:54.553Z,83.22
2023-04-09T03:22:21.226Z,83.55
2023-04-09T03:24:47.834Z,83.57
2023-04-09T03:27:14.531Z,83.27
2023-04-09T03:29:41.137Z,83.66
2023-04-09T03:32:07.822Z,83.65
2023-04-09T03:34:34.433Z,83.63
2023-04-09T03:37:01.131Z,83.35
2023-04-09T03:39:30.992Z,83.37
2023-04-09T03:41:59.070Z,83.22
2023-04-09T03:44:25.709Z,83.20
2023-04-09T03:46:53.038Z,83.42
2023-04-09T03:49:19.831Z,83.41
2023-04-09T03:51:46.416Z,83.61
2023-04-09T03:54:13.977Z,83.56
2023-04-09T03:56:40.611Z,83.96
2023-04-09T03:59:07.275Z,83.72
2023-04-09T04:01:35.008Z,83.61
2023-04-09T04:04:02.072Z,83.41
2023-04-09T04:06:28.924Z,83.63
2023-04-09T04:08:55.796Z,83.55
2023-04-09T04:11:22.359Z,83.50
2023-04-09T04:13:48.988Z,83.49
2023-04-09T04:16:16.150Z,83.59
2023-04-09T04:18:42.805Z,83.87
2023-04-09T04:21:14.983Z,83.50
2023-04-09T04:23:41.886Z,83.64
2023-04-09T04:26:12.539Z,83.86
2023-04-09T04:28:39.987Z,83.75
2023-04-09T04:31:13.571Z,83.84
2023-04-09T04:33:41.595Z,83.32
2023-04-09T04:36:13.108Z,83.58
2023-04-09T04:38:41.736Z,83.52
2023-04-09T04:41:08.720Z,83.81
2023-04-09T04:43:35.556Z,83.81
2023-04-09T04:46:02.342Z,83.78
2023-04-09T04:48:29.651Z,83.53
2023-04-09T04:51:00.514Z,83.82
2023-04-09T04:53:27.589Z,83.48
2023-04-09T04:55:54.701Z,83.55
2023-04-09T04:58:21.283Z,83.46
2023-04-09T05:00:48.005Z,83.59
2023-04-09T05:03:15.550Z,83.70
2023-04-09T05:05:42.247Z,83.52
2023-04-09T05:08:09.050Z,83.51
2023-04-09T05:10:35.752Z,83.37
2023-04-09T05:13:02.552Z,83.51
2023-04-09T05:15:29.204Z,83.83
2023-04-09T05:17:56.053Z,83.39
2023-04-09T05:20:22.932Z,83.46
2023-04-09T05:22:49.769Z,83.54
2023-04-09T05:25:16.668Z,83.46
2023-04-09T05:27:43.752Z,83.65
2023-04-09T05:30:10.859Z,82.90
2023-04-09T05:32:37.976Z,83.20
2023-04-09T05:35:05.246Z,83.11
2023-04-09T05:37:31.872Z,82.74
2023-04-09T05:39:58.599Z,83.13
2023-04-09T05:42:25.186Z,82.99
2023-04-09T05:44:51.742Z,83.19
2023-04-09T05:47:18.331Z,82.54
2023-04-09T05:49:44.897Z,82.64
2023-04-09T05:52:11.520Z,82.59
2023-04-09T05:54:38.199Z,82.18
2023-04-09T05:57:04.866Z,81.89
2023-04-09T05:59:33.911Z,81.62
2023-04-09T06:02:00.540Z,81.18
2023-04-09T06:04:28.146Z,81.37
2023-04-09T06:06:55.977Z,80.90
2023-04-09T06:09:22.569Z,80.81
2023-04-09T06:11:49.147Z,80.57
2023-04-09T06:14:18.681Z,80.15
2023-04-09T06:16:45.260Z,80.04
2023-04-09T06:19:12.611Z,79.45
2023-04-09T06:21:40.848Z,79.53
2023-04-09T06:24:07.685Z,78.18
2023-04-09T06:26:34.580Z,78.83
2023-04-09T06:29:01.183Z,78.28
2023-04-09T06:31:27.841Z,78.37
2023-04-09T06:33:54.974Z,78.61
2023-04-09T06:36:22.124Z,78.27
2023-04-09T06:38:48.722Z,78.39
2023-04-09T06:41:15.594Z,78.13
2023-04-09T06:43:42.492Z,78.37
2023-04-09T06:46:09.440Z,77.88
2023-04-09T06:48:36.257Z,77.10
2023-04-09T06:51:03.143Z,77.22
2023-04-09T06:53:29.803Z,77.10
2023-04-09T06:55:57.227Z,76.76
2023-04-09T06:58:23.979Z,76.69
2023-04-09T07:00:50.616Z,76.00
2023-04-09T07:03:17.375Z,75.95
2023-04-09T07:05:44.138Z,75.19
2023-04-09T07:08:11.863Z,74.59
2023-04-09T07:10:38.851Z,74.15
2023-04-09T07:13:05.582Z,74.01
2023-04-09T07:15:32.370Z,74.00
2023-04-09T07:17:59.017Z,73.28
2023-04-09T07:20:25.642Z,73.37
2023-04-09T07:22:52.556Z,73.20
2023-04-09T07:25:19.226Z,72.33
2023-04-09T07:27:46.198Z,72.07
2023-04-09T07:30:12.885Z,70.78
2023-04-09T07:32:39.574Z,70.17
2023-04-09T07:35:08.164Z,70.84
2023-04-09T07:37:34.772Z,69.37
2023-04-09T07:40:04.134Z,70.02
2023-04-09T07:42:31.175Z,69.27
2023-04-09T07:44:57.808Z,68.59
2023-04-09T07:47:24.500Z,68.39
2023-04-09T07:49:51.497Z,68.47
2023-04-09T07:52:18.208Z,68.21
2023-04-09T07:54:44.818Z,67.58
2023-04-09T07:57:11.406Z,67.67
2023-04-09T07:59:38.140Z,66.60
2023-04-09T08:02:07.605Z,67.24
2023-04-09T08:04:34.547Z,66.61
2023-04-09T08:07:02.306Z,64.62
2023-04-09T08:09:28.889Z,64.31
2023-04-09T08:11:56.022Z,62.58
2023-04-09T08:14:22.628Z,62.86
2023-04-09T08:16:50.437Z,62.67
2023-04-09T08:19:17.756Z,62.08
2023-04-09T08:21:44.689Z,61.86
2023-04-09T08:24:12.061Z,61.62
2023-04-09T08:26:39.982Z,60.62
2023-04-09T08:29:07.904Z,59.27
2023-04-09T08:31:34.880Z,58.94
2023-04-09T08:34:01.594Z,58.58
2023-04-09T08:36:29.038Z,58.47
2023-04-09T08:38:56.725Z,57.60
2023-04-09T08:41:24.918Z,57.48
2023-04-09T08:43:58.303Z,58.22
2023-04-09T08:46:28.860Z,57.38
2023-04-09T08:48:56.022Z,57.25
2023-04-09T08:51:24.549Z,57.11
2023-04-09T08:54:01.347Z,56.14
2023-04-09T08:56:31.273Z,54.71
2023-04-09T08:58:57.858Z,55.19
2023-04-09T09:01:29.421Z,54.70
2023-04-09T09:04:07.603Z,54.60
2023-04-09T09:06:38.935Z,54.84
2023-04-09T09:09:12.778Z,54.06
2023-04-09T09:11:46.459Z,52.22
2023-04-09T09:14:15.021Z,52.40
2023-04-09T09:16:45.131Z,51.94
2023-04-09T09:19:27.192Z,51.93
2023-04-09T09:22:06.271Z,52.04
2023-04-09T09:24:34.097Z,51.30
2023-04-09T09:27:02.964Z,51.40
2023-04-09T09:29:29.750Z,51.91
2023-04-09T09:31:56.759Z,51.17
2023-04-09T09:34:25.031Z,51.65
2023-04-09T09:36:51.680Z,50.67
2023-04-09T09:39:18.562Z,50.68
2023-04-09T09:41:47.564Z,49.17
2023-04-09T09:44:31.496Z,49.72
2023-04-09T09:46:59.008Z,50.10
2023-04-09T09:49:25.603Z,49.46
2023-04-09T09:51:53.557Z,50.77
2023-04-09T09:54:25.836Z,50.25
2023-04-09T09:56:55.952Z,50.29
2023-04-09T09:59:32.345Z,48.49
2023-04-09T10:02:06.212Z,48.77
2023-04-09T10:04:36.261Z,49.72
2023-04-09T10:07:05.905Z,49.54
2023-04-09T10:09:36.357Z,49.68
2023-04-09T10:12:07.133Z,49.09
2023-04-09T10:14:36.007Z,48.76
2023-04-09T10:17:04.404Z,48.73
2023-04-09T10:19:43.243Z,48.08
2023-04-09T10:22:16.324Z,48.44
2023-04-09T10:24:43.258Z,48.64
2023-04-09T10:27:13.650Z,48.01
2023-04-09T10:29:47.323Z,48.34
2023-04-09T10:32:23.908Z,47.78
2023-04-09T10:34:50.991Z,48.43
2023-04-09T10:37:23.092Z,47.64
2023-04-09T10:39:51.730Z,48.57
2023-04-09T10:42:49.358Z,47.94
2023-04-09T10:45:16.988Z,47.42
2023-04-09T10:47:44.399Z,47.96
2023-04-09T10:50:19.552Z,47.90
2023-04-09T10:52:46.935Z,47.35
2023-04-09T10:55:36.813Z,47.28
2023-04-09T10:58:10.456Z,45.89
2023-04-09T11:00:41.478Z,45.95
2023-04-09T11:03:21.999Z,46.16
2023-04-09T11:05:52.885Z,46.64
2023-04-09T11:08:19.931Z,47.65
2023-04-09T11:10:50.513Z,47.02
2023-04-09T11:13:20.914Z,46.89
2023-04-09T11:15:47.695Z,46.15
2023-04-09T11:18:15.704Z,46.80
2023-04-09T11:20:42.610Z,46.14
2023-04-09T11:23:10.906Z,45.73
2023-04-09T11:25:40.026Z,46.61
2023-04-09T11:28:08.657Z,46.01
2023-04-09T11:30:37.652Z,46.21
2023-04-09T11:33:04.446Z,45.67
2023-04-09T11:35:35.696Z,46.46
2023-04-09T11:38:08.953Z,46.40
2023-04-09T11:40:36.399Z,45.88
2023-04-09T11:43:03.347Z,46.30
2023-04-09T11:45:32.449Z,44.63
2023-04-09T11:47:59.361Z,45.76
2023-04-09T11:50:26.386Z,46.78
2023-04-09T11:52:52.957Z,46.29
2023-04-09T11:55:37.724Z,45.72
2023-04-09T11:58:11.922Z,45.81
2023-04-09T12:00:41.082Z,45.46
2023-04-09T12:03:08.401Z,45.97
2023-04-09T12:05:35.825Z,46.64
2023-04-09T12:08:08.797Z,45.55
2023-04-09T12:10:37.718Z,46.44
2023-04-09T12:13:07.054Z,45.66
2023-04-09T12:15:38.655Z,46.10
2023-04-09T12:18:09.085Z,46.72
2023-04-09T12:20:44.264Z,45.83
2023-04-09T12:23:12.315Z,45.68
2023-04-09T12:25:41.169Z,46.71
2023-04-09T12:28:09.831Z,46.69
2023-04-09T12:30:36.657Z,45.35
2023-04-09T12:33:04.964Z,45.85
2023-04-09T12:35:32.361Z,46.26
2023-04-09T12:38:01.927Z,46.08
2023-04-09T12:40:28.621Z,46.11
2023-04-09T12:42:57.653Z,45.96
2023-04-09T12:45:24.315Z,46.64
2023-04-09T12:47:51.497Z,46.41
2023-04-09T12:50:18.127Z,46.50
2023-04-09T12:52:45.740Z,45.81
2023-04-09T12:55:16.202Z,46.35
2023-04-09T12:57:44.980Z,45.99
2023-04-09T13:00:12.498Z,46.12
2023-04-09T13:02:39.586Z,46.10
2023-04-09T13:05:06.792Z,46.39
2023-04-09T13:07:33.569Z,46.42
2023-04-09T13:10:00.162Z,46.06
2023-04-09T13:12:27.317Z,46.85
2023-04-09T13:14:55.096Z,46.38
2023-04-09T13:17:22.340Z,47.13
2023-04-09T13:19:49.745Z,46.91
2023-04-09T13:22:16.366Z,46.31
2023-04-09T13:24:43.574Z,46.54
2023-04-09T13:27:11.583Z,46.66
2023-04-09T13:29:38.735Z,46.20
2023-04-09T13:32:08.508Z,45.93
2023-04-09T13:34:35.682Z,46.84
2023-04-09T13:37:05.537Z,46.14
2023-04-09T13:39:32.277Z,45.73
2023-04-09T13:42:00.040Z,45.98
2023-04-09T13:44:28.670Z,46.29
2023-04-09T13:46:55.579Z,46.21
2023-04-09T13:49:22.377Z,46.30
2023-04-09T13:51:49.399Z,46.63
2023-04-09T13:54:16.406Z,46.73
2023-04-09T13:56:44.576Z,46.78
2023-04-09T13:59:11.623Z,46.69
2023-04-09T14:01:38.352Z,46.02
2023-04-09T14:04:05.086Z,46.44
2023-04-09T14:06:31.803Z,46.45
2023-04-09T14:08:58.493Z,46.29
2023-04-09T14:11:25.172Z,45.76
2023-04-09T14:13:51.963Z,45.21
2023-04-09T14:16:19.396Z,45.01
2023-04-09T14:18:46.390Z,44.98
2023-04-09T14:21:15.644Z,45.49
2023-04-09T14:23:42.258Z,45.76
2023-04-09T14:26:09.048Z,46.00
2023-04-09T14:28:36.120Z,45.66
2023-04-09T14:31:02.707Z,45.76
2023-04-09T14:33:31.234Z,45.18
2023-04-09T14:35:59.034Z,44.97
2023-04-09T14:38:26.007Z,45.08
2023-04-09T14:40:52.875Z,45.28
2023-04-09T14:43:19.534Z,45.07
2023-04-09T14:45:46.527Z,45.23
2023-04-09T14:48:13.134Z,44.76
2023-04-09T14:50:39.989Z,44.84
2023-04-09T14:53:07.614Z,44.14
2023-04-09T14:55:34.715Z,44.02
2023-04-09T14:58:04.405Z,44.53
2023-04-09T15:00:32.089Z,43.64
2023-04-09T15:02:59.187Z,44.02
2023-04-09T15:05:26.708Z,43.99
2023-04-09T15:07:54.773Z,44.37
2023-04-09T15:10:21.496Z,44.14
2023-04-09T15:12:48.076Z,43.80
2023-04-09T15:15:14.807Z,43.90
2023-04-09T15:17:41.708Z,43.88
2023-04-09T15:20:09.201Z,43.81
2023-04-09T15:22:36.014Z,43.34
2023-04-09T15:25:02.650Z,43.45
2023-04-09T15:27:31.512Z,43.68
2023-04-09T15:29:58.280Z,44.18
2023-04-09T15:32:24.906Z,44.30
2023-04-09T15:34:51.599Z,44.24
2023-04-09T15:37:18.245Z,44.29
2023-04-09T15:39:44.896Z,44.55
2023-04-09T15:42:13.459Z,44.88
2023-04-09T15:44:41.593Z,44.80
2023-04-09T15:47:08.664Z,44.34
2023-04-09T15:49:37.006Z,44.63
2023-04-09T15:52:04.187Z,44.55
2023-04-09T15:54:31.080Z,44.55
2023-04-09T15:56:57.962Z,44.97
2023-04-09T15:59:24.604Z,45.05
2023-04-09T16:01:51.344Z,44.42
2023-04-09T16:04:18.005Z,44.91
2023-04-09T16:06:44.645Z,44.58
2023-04-09T16:09:11.541Z,44.35
2023-04-09T16:11:38.126Z,44.35
2023-04-09T16:14:04.782Z,44.39
2023-04-09T16:16:31.497Z,44.29
2023-04-09T16:18:58.180Z,43.75
2023-04-09T16:21:24.731Z,44.49
2023-04-09T16:23:52.524Z,44.63
2023-04-09T16:26:19.167Z,43.89
2023-04-09T16:28:45.858Z,44.99
2023-04-09T16:31:12.553Z,44.77
2023-04-09T16:33:39.220Z,44.05
2023-04-09T16:36:06.421Z,44.15
2023-04-09T16:38:33.148Z,44.43
2023-04-09T16:40:59.901Z,44.29
2023-04-09T16:43:26.765Z,43.99
2023-04-09T16:45:53.656Z,44.49
2023-04-09T16:48:22.815Z,44.68
2023-04-09T16:50:49.401Z,44.85
2023-04-09T16:53:16.170Z,45.21
2023-04-09T16:55:44.587Z,45.18
2023-04-09T16:58:11.351Z,45.62
2023-04-09T17:00:40.112Z,45.42
2023-04-09T17:03:07.115Z,45.29
2023-04-09T17:05:33.924Z,45.25
2023-04-09T17:08:01.276Z,45.00
2023-04-09T17:10:28.267Z,45.59
2023-04-09T17:12:54.931Z,45.46
2023-04-09T17:15:22.776Z,45.73
2023-04-09T17:17:51.440Z,46.02
2023-04-09T17:20:18.174Z,46.10
2023-04-09T17:22:44.953Z,46.52
2023-04-09T17:25:11.578Z,46.91
2023-04-09T17:27:38.185Z,47.05
2023-04-09T17:30:05.457Z,46.96
2023-04-09T17:32:32.110Z,47.16
2023-04-09T17:34:59.752Z,46.91
2023-04-09T17:37:28.926Z,47.33
2023-04-09T17:39:55.637Z,47.57
2023-04-09T17:42:23.503Z,47.43
2023-04-09T17:44:50.161Z,46.85
2023-04-09T17:47:17.217Z,47.55
2023-04-09T17:49:44.369Z,47.61
2023-04-09T17:52:11.019Z,47.31
2023-04-09T17:54:38.858Z,47.68
2023-04-09T17:57:07.367Z,47.29
2023-04-09T17:59:34.834Z,47.66
2023-04-09T18:02:02.368Z,47.71
2023-04-09T18:04:29.380Z,47.74
2023-04-09T18:06:56.449Z,47.82
2023-04-09T18:09:23.026Z,47.68
2023-04-09T18:11:53.562Z,47.98
2023-04-09T18:14:20.426Z,48.05
2023-04-09T18:16:47.445Z,48.27
2023-04-09T18:19:14.130Z,48.18
2023-04-09T18:21:40.806Z,48.33
2023-04-09T18:24:08.088Z,48.64
2023-04-09T18:26:34.726Z,48.54
2023-04-09T18:29:01.934Z,48.55
2023-04-09T18:31:28.795Z,49.04
2023-04-09T18:33:55.839Z,49.04
2023-04-09T18:36:22.461Z,49.12
2023-04-09T18:38:49.161Z,49.31
2023-04-09T18:41:26.144Z,49.62
2023-04-09T18:43:53.268Z,49.51
2023-04-09T18:46:19.981Z,49.54
2023-04-09T18:48:49.241Z,49.73
2023-04-09T18:51:16.878Z,49.78
2023-04-09T18:53:44.215Z,49.57
2023-04-09T18:56:11.610Z,49.67
2023-04-09T18:58:38.957Z,50.03
2023-04-09T19:01:12.309Z,50.20
2023-04-09T19:03:40.477Z,50.33
2023-04-09T19:06:18.453Z,50.41
2023-04-09T19:08:46.312Z,50.18
2023-04-09T19:11:13.619Z,50.16
2023-04-09T19:13:40.693Z,50.05
2023-04-09T19:16:09.505Z,50.12
2023-04-09T19:18:37.401Z,50.49
2023-04-09T19:21:05.594Z,50.85
2023-04-09T19:23:34.375Z,50.52
2023-04-09T19:26:02.042Z,50.92
2023-04-09T19:28:29.130Z,50.95
2023-04-09T19:31:00.062Z,51.02
2023-04-09T19:33:27.984Z,50.61
2023-04-09T19:35:55.461Z,50.40
2023-04-09T19:38:24.646Z,50.32
2023-04-09T19:40:51.593Z,50.42
2023-04-09T19:43:18.207Z,50.66
2023-04-09T19:45:45.039Z,50.87
2023-04-09T19:48:12.456Z,50.88
2023-04-09T19:50:41.266Z,51.05
2023-04-09T19:53:07.926Z,50.91
2023-04-09T19:55:34.977Z,50.87
2023-04-09T19:58:02.634Z,50.83
2023-04-09T20:00:29.484Z,50.75
2023-04-09T20:02:57.321Z,50.76
2023-04-09T20:05:24.196Z,50.78
2023-04-09T20:07:52.907Z,50.86
2023-04-09T20:10:19.964Z,51.39
2023-04-09T20:12:50.508Z,51.17
2023-04-09T20:15:20.540Z,51.43
2023-04-09T20:17:48.371Z,51.22
2023-04-09T20:20:18.053Z,51.44
2023-04-09T20:22:47.592Z,51.48
2023-04-09T20:25:14.466Z,51.36
2023-04-09T20:27:41.276Z,51.62
2023-04-09T20:30:08.521Z,51.38
2023-04-09T20:32:36.923Z,51.33
2023-04-09T20:35:04.513Z,51.80
2023-04-09T20:37:31.403Z,52.76
2023-04-09T20:39:59.636Z,52.44
2023-04-09T20:42:26.603Z,51.74
2023-04-09T20:44:53.430Z,51.89
2023-04-09T20:47:22.149Z,51.89
2023-04-09T20:49:51.075Z,52.03
2023-04-09T20:52:17.987Z,52.18
2023-04-09T20:54:45.516Z,52.38
2023-04-09T20:57:13.790Z,52.35
2023-04-09T20:59:40.760Z,52.42
2023-04-09T21:02:08.964Z,52.57
2023-04-09T21:04:35.659Z,52.55
2023-04-09T21:07:02.668Z,52.45
2023-04-09T21:09:29.739Z,52.95
2023-04-09T21:11:56.397Z,52.97
2023-04-09T21:14:23.161Z,52.92
2023-04-09T21:16:49.911Z,52.85
2023-04-09T21:19:18.996Z,53.03
2023-04-09T21:21:46.318Z,53.14
2023-04-09T21:24:13.520Z,53.45
2023-04-09T21:26:50.966Z,53.09
2023-04-09T21:29:20.972Z,53.27
2023-04-09T21:31:48.633Z,53.23
2023-04-09T21:34:15.790Z,53.44
2023-04-09T21:36:42.443Z,53.25
2023-04-09T21:39:09.604Z,53.96
2023-04-09T21:41:36.749Z,53.74
2023-04-09T21:44:08.316Z,54.06
2023-04-09T21:46:37.149Z,53.86
2023-04-09T21:49:04.442Z,54.17
2023-04-09T21:51:32.345Z,54.23
2023-04-09T21:54:04.192Z,54.38
2023-04-09T21:56:32.023Z,54.23
2023-04-09T21:58:58.726Z,54.33
2023-04-09T22:01:29.332Z,54.39
2023-04-09T22:03:57.911Z,54.40
2023-04-09T22:06:25.165Z,54.63
2023-04-09T22:08:56.013Z,54.55
2023-04-09T22:11:28.389Z,54.97
2023-04-09T22:13:56.107Z,54.93
2023-04-09T22:16:26.053Z,55.00
2023-04-09T22:18:54.499Z,55.17
2023-04-09T22:21:21.664Z,54.89
2023-04-09T22:23:48.423Z,54.87
2023-04-09T22:26:15.103Z,55.24
2023-04-09T22:28:41.710Z,55.34
2023-04-09T22:31:08.409Z,55.20
2023-04-09T22:33:35.084Z,55.82
2023-04-09T22:36:01.945Z,55.84
2023-04-09T22:38:28.678Z,55.81
2023-04-09T22:40:55.907Z,55.65
2023-04-09T22:43:22.889Z,55.95
2023-04-09T22:45:51.735Z,56.06
2023-04-09T22:48:19.439Z,56.13
2023-04-09T22:50:47.134Z,55.76
2023-04-09T22:53:20.933Z,55.50
2023-04-09T22:55:51.156Z,55.51
2023-04-09T22:58:18.389Z,55.29
2023-04-09T23:00:45.399Z,55.69
2023-04-09T23:03:12.142Z,55.71
2023-04-09T23:05:39.975Z,55.69
2023-04-09T23:08:06.704Z,55.98
2023-04-09T23:10:34.236Z,55.73
2023-04-09T23:13:00.979Z,55.60
2023-04-09T23:15:29.135Z,55.59
2023-04-09T23:17:56.238Z,55.67
2023-04-09T23:20:23.226Z,55.65
2023-04-09T23:22:50.068Z,55.82
2023-04-09T23:25:16.980Z,56.30
2023-04-09T23:27:44.155Z,56.39
2023-04-09T23:30:11.382Z,56.28
2023-04-09T23:32:38.182Z,56.05
2023-04-09T23:35:05.158Z,56.45
2023-04-09T23:37:32.183Z,56.28
2023-04-09T23:39:58.807Z,56.16
2023-04-09T23:42:26.858Z,56.20
2023-04-09T23:44:53.431Z,56.24
2023-04-09T23:47:22.666Z,55.96
2023-04-09T23:49:49.297Z,56.32
2023-04-09T23:52:16.172Z,56.05
2023-04-09T23:54:49.256Z,56.10
2023-04-09T23:57:16.542Z,56.19
2023-04-09T23:59:43.151Z,56.19
